Terminal Aerodrome Forecast
Issued by NWS Tampa Bay Area, FL

Home | Current Version | Previous Version | Text Only | Print | Product List | Glossary On
Versions: 1 2 3 4 5 6 7 8 9 10 11 12 13 14 15 16 17 18 19 20 21 22
990
FTUS42 KTBW 230548
TAFTPA
TAF
KTPA 230548Z 2306/2406 VRB03KT P6SM FEW030 SCT050 BKN250
     FM231600 24007KT P6SM SCT030 BKN070
     FM232000 28009KT P6SM SCT050 BKN250
     FM240100 30007KT P6SM FEW050 BKN250=

USA.gov is the U.S. government's official web portal to all federal, state and local government web resources and services.